Terminal Aerodrome Forecast
Issued by NWS

Home | Current Version | Previous Version | Text Only | Print | Product List | Glossary On
Versions: 1 2 3 4 5 6 7 8 9 10 11 12 13 14 15
000
FTUS42 KTAE 231800 AAA
TAFDHN
TAF AMD
KDHN 231848Z 2319/2418 16015G25KT 4SM -TSRA SCT015 OVC025CB
      TEMPO 2319/2322 VRB20G30KT 2SM +TSRA
     FM240000 20011KT 4SM BR OVC007
     FM240600 20010KT 2SM BR OVC004
     FM241500 25013G20KT P6SM SCT015=

USA.gov is the U.S. government's official web portal to all federal, state and local government web resources and services.